Dunkel, Illinois
Current Conditions -  °F | °C
As of 6:35 PM on Friday 21 Nov 2014 (Local Time) from KTAZ Reporting Station
Overcast Overcast  
Wind Chill: 25°   Ceiling: 4400
Heat Index: 34°   Visibility: 10mi
Dew Point: 19°   Wind: 12mph
Humidity: 56%   Direction: 140°SE
Pressure: 30.3"   Gusts: NA
Location:  39.4061°N, 89.0821°W
Report Text: KTAZ 220035Z AUTO 14010KT 10SM BKN044 OVC070 01/M07 A3030 RMK AO2
Loading
Personal Weather Stations






























Interactive Weather Map New forecast layout! Learn more

10-Day Weather Forecast

Advertisements
Track Severe Weather on mobile